N4312R KOPF-KORL
Flight info
| Callsign | N4312R |
|---|---|
| Flight time | N/A |
| Altitude | 24000 |
| Route | LIFRR2 BAIRN GOOFY7 |
| Aircraft | TBM9/L-SDFGRWY/S |
Departure
| Time | 2026-05-04 19:39 |
|---|---|
| Airport | Miami-Opa Locka Executive Airport (KOPF) |
Arrival
| Time | N/A |
|---|---|
| Airport | Orlando Executive Airport (KORL) |
| Time | Latitude | Longitude | Altitude | Speed | Heading |
|---|---|---|---|---|---|
| 2026-05-04 19:24 | 25.90955 | -80.27481 | 13 ft | 0 kts | 301° |
| 2026-05-04 19:28 | 25.90955 | -80.27480 | 13 ft | 0 kts | 301° |
| 2026-05-04 19:32 | 25.90955 | -80.27479 | 13 ft | 0 kts | 301° |
| 2026-05-04 19:34 | 25.91009 | -80.27498 | 13 ft | 20 kts | 36° |
| 2026-05-04 19:34 | 25.91129 | -80.27409 | 12 ft | 12 kts | 29° |
| 2026-05-04 19:34 | 25.91194 | -80.27387 | 13 ft | 6 kts | 300° |
| 2026-05-04 19:35 | 25.91186 | -80.27442 | 12 ft | 9 kts | 272° |
| 2026-05-04 19:35 | 25.91193 | -80.27518 | 11 ft | 11 kts | 271° |
| 2026-05-04 19:35 | 25.91186 | -80.27611 | 11 ft | 13 kts | 264° |
| 2026-05-04 19:35 | 25.91177 | -80.27714 | 11 ft | 14 kts | 263° |
| 2026-05-04 19:36 | 25.91168 | -80.27835 | 9 ft | 17 kts | 268° |
| 2026-05-04 19:36 | 25.91156 | -80.27982 | 6 ft | 20 kts | 263° |
| 2026-05-04 19:36 | 25.91158 | -80.28131 | 8 ft | 23 kts | 268° |
| 2026-05-04 19:36 | 25.91150 | -80.28324 | 10 ft | 26 kts | 270° |
| 2026-05-04 19:37 | 25.91140 | -80.28531 | 11 ft | 27 kts | 265° |
| 2026-05-04 19:37 | 25.91133 | -80.28737 | 15 ft | 21 kts | 269° |
| 2026-05-04 19:37 | 25.91161 | -80.28840 | 15 ft | 14 kts | 356° |
| 2026-05-04 19:37 | 25.91257 | -80.28821 | 15 ft | 14 kts | 51° |
| 2026-05-04 19:38 | 25.91273 | -80.28772 | 15 ft | 4 kts | 89° |
| 2026-05-04 19:38 | 25.91286 | -80.28514 | 12 ft | 65 kts | 93° |
| 2026-05-04 19:38 | 25.91320 | -80.27815 | 120 ft | 110 kts | 85° |
| 2026-05-04 19:38 | 25.91364 | -80.26894 | 546 ft | 126 kts | 87° |
| 2026-05-04 19:39 | 25.91339 | -80.25895 | 1065 ft | 134 kts | 89° |
| 2026-05-04 19:39 | 25.91268 | -80.24836 | 1633 ft | 134 kts | 79° |
| 2026-05-04 19:39 | 25.91691 | -80.23983 | 2268 ft | 130 kts | 40° |
| 2026-05-04 19:39 | 25.92458 | -80.23449 | 2772 ft | 132 kts | 34° |
| 2026-05-04 19:40 | 25.93194 | -80.22737 | 3124 ft | 147 kts | 43° |
| 2026-05-04 19:40 | 25.94048 | -80.22122 | 3778 ft | 140 kts | 14° |
| 2026-05-04 19:40 | 25.95013 | -80.22319 | 4352 ft | 147 kts | 345° |
| 2026-05-04 19:40 | 25.95614 | -80.22479 | 4859 ft | 138 kts | 350° |
| 2026-05-04 19:41 | 25.96531 | -80.22567 | 5472 ft | 145 kts | 353° |
| 2026-05-04 19:41 | 25.97565 | -80.22738 | 6011 ft | 147 kts | 344° |
| 2026-05-04 19:41 | 25.98531 | -80.22936 | 6660 ft | 144 kts | 347° |
| 2026-05-04 19:41 | 25.99549 | -80.23019 | 7100 ft | 150 kts | 355° |
| 2026-05-04 19:42 | 26.00201 | -80.23042 | 7255 ft | 159 kts | 351° |
| 2026-05-04 19:42 | 26.01267 | -80.23334 | 7665 ft | 159 kts | 335° |
| 2026-05-04 19:42 | 26.02306 | -80.23638 | 8254 ft | 154 kts | 342° |
| 2026-05-04 19:42 | 26.03392 | -80.23802 | 8695 ft | 161 kts | 349° |
| 2026-05-04 19:43 | 26.04526 | -80.23932 | 9094 ft | 165 kts | 342° |
| 2026-05-04 19:43 | 26.05610 | -80.24362 | 9471 ft | 171 kts | 331° |
| 2026-05-04 19:43 | 26.06774 | -80.24927 | 9645 ft | 193 kts | 332° |
| 2026-05-04 19:43 | 26.08090 | -80.25361 | 9958 ft | 204 kts | 340° |
| 2026-05-04 19:44 | 26.09495 | -80.25645 | 10380 ft | 210 kts | 348° |
| 2026-05-04 19:44 | 26.11060 | -80.25649 | 10353 ft | 232 kts | 354° |
| 2026-05-04 19:44 | 26.12549 | -80.25802 | 11153 ft | 205 kts | 341° |
| 2026-05-04 19:44 | 26.13959 | -80.26151 | 11593 ft | 211 kts | 341° |
| 2026-05-04 19:45 | 26.15439 | -80.26434 | 11873 ft | 217 kts | 346° |
| 2026-05-04 19:45 | 26.17007 | -80.26479 | 11881 ft | 232 kts | 352° |